Terminal Aerodrome Forecast
Issued by NWS Twin Cities, MN

Home | Current Version | Previous Version | Graphics & Text | Print | Product List | Glossary On
Versions: 1 2 3 4 5 6 7 8 9 10 11 12 13 14 15 16 17 18 19 20 21 22 23 24 25 26
755
FTUS43 KMPX 231733
TAFMSP
TAF
KMSP 231733Z 2318/2424 29004KT P6SM BKN012 OVC020
     FM232100 26003KT P6SM OVC018
     FM240300 VRB02KT 6SM BR OVC015
     FM241500 09006KT 5SM -SN BR OVC012
     FM242100 09006KT 2SM -SN BR OVC008=

USA.gov is the U.S. government's official web portal to all federal, state and local government web resources and services.